NCAR-RAP Real-Time Weather Data

Output produced by METARs form (05 March 2015  04:01 UTC)
found at http://weather.rap.ucar.edu/surface/
 
Conditions at: KLOU observed 05 March 2015  03:53 UTC
Temperature: -5.0°C (23°F)
Dewpoint: -6.7°C (20°F) [RH = 88%]
Pressure (altimeter): 30.25 inches Hg (1024.5 mb)
[Sea-level pressure: 1024.8 mb]
Winds: from the N (350 degrees) at 16 MPH (14 knots; 7.3 m/s)
gusting to 21 MPH (18 knots; 9.4 m/s)
Visibility: 0.50 miles (0.80 km)
Ceiling: indefinite ceiling with vertical visibility of 600 feet AGL
Clouds: obscured sky
Present Weather: FZFG SN  (freezing fog, snow)
KLOU 050353Z AUTO 35014G18KT 1/2SM SN FZFG VV006 M05/M07 A3025 RMK AO2 SLP248 P0005 T10501067